Millvale, Pennsylvania
Current Conditions -  °F | °C
As of 9:53 PM on Friday 24 Oct 2014 (Local Time) from KAGC Reporting Station
Clear Clear  
Wind Chill: 51°   Ceiling: Unl
Heat Index: 51°   Visibility: 10mi
Dew Point: 35°   Wind: 7mph
Humidity: 54%   Direction: 240°WSW
Pressure: 30.01"   Gusts: NA
Location:  40.5015°N, 79.9773°W
Report Text: KAGC 250153Z 24006KT 10SM CLR 11/02 A3001 RMK AO2 SLP171 T01060017
Loading
Personal Weather Stations






























Interactive Weather Map New forecast layout! Learn more

10-Day Weather Forecast

Advertisements
Track Severe Weather on mobile